Catàleg de serveis del Meteocat
Campanya meteocatpedra

Dades de l'estació automàtica Sant Martí Sarroca

?
?
Resum diari 22:30 TU
Dades diàries de l'estació meteorològica
Temperatura mitjana 8.7 °C
Temperatura màxima 14.2 °C 14:03 TU
Temperatura mínima 3.8 °C 2:20 TU
Humitat relativa mitjana 81%
Precipitació acumulada 2.5 mm
Ratxa màxima del vent (2 m) 21.2 km/h - 240º 22:04 TU
Irradiació solar global 5.6 MJ/m2

El tram horari està expressat en Temps Universal (TU). Cal sumar una hora en horari d'hivern i dues en horari d'estiu per passar a l'hora oficial.

Sant Martí Sarroca

Metadades estació meteorol´gica
Municipi Sant Martí Sarroca
Comarca Alt Penedès
Altitud 257 m
Data alta 24.05.1997
Estat actual Operativa
Dades de període
Període
TU
TM
°C
TX
°C
TN
°C
HRM
%
PPT
mm
VVM (2 m)
km/h
DVM (2 m)
graus
VVX (2 m)
km/h
RS
W/m2
00:00 - 00:30 8.3 8.7 7.9 71 0.0 2.2 173 5.0 0
00:30 - 01:00 7.7 8.2 6.9 74 0.0 3.2 172 7.2 0
01:00 - 01:30 6.0 7.0 5.0 82 0.0 1.4 32 3.6 0
01:30 - 02:00 4.7 5.1 4.3 88 0.0 0.7 341 2.9 0
02:00 - 02:30 4.1 4.5 3.8 90 0.0 2.2 315 7.9 0
02:30 - 03:00 5.5 5.6 4.9 85 0.0 2.2 327 7.9 0
03:00 - 03:30 5.5 5.8 5.0 85 0.0 3.2 349 6.8 0
03:30 - 04:00 5.7 6.0 5.5 84 0.0 3.2 351 6.8 0
04:00 - 04:30 5.8 6.0 5.5 84 0.0 1.4 345 5.0 0
04:30 - 05:00 6.2 6.5 5.9 83 0.0 1.8 323 5.4 0
05:00 - 05:30 6.6 6.7 6.5 83 0.0 1.8 29 5.0 0
05:30 - 06:00 6.7 6.8 6.6 84 0.0 1.4 352 4.0 0
06:00 - 06:30 6.6 6.7 6.5 86 0.0 1.4 14 3.6 0
06:30 - 07:00 6.7 6.8 6.6 89 0.0 2.9 341 7.2 0
07:00 - 07:30 6.9 7.0 6.8 92 0.4 4.0 334 9.0 7
07:30 - 08:00 7.2 7.7 7.0 93 0.4 4.3 323 12.2 13
08:00 - 08:30 7.4 7.7 7.1 93 1.2 3.2 6 9.0 20
08:30 - 09:00 7.2 7.4 7.1 94 0.5 2.5 338 7.9 35
09:00 - 09:30 7.6 8.0 7.4 95 0.0 2.2 10 5.8 69
09:30 - 10:00 8.5 8.8 8.0 93 0.0 2.9 319 8.3 101
10:00 - 10:30 9.0 9.2 8.8 92 0.0 1.8 43 4.3 73
10:30 - 11:00 9.1 9.2 8.8 93 0.0 1.8 132 4.7 47
11:00 - 11:30 8.8 9.1 8.6 95 0.0 1.1 34 3.6 77
11:30 - 12:00 9.9 10.8 9.2 90 0.0 3.6 312 7.9 243
12:00 - 12:30 11.4 11.8 10.9 76 0.0 3.6 288 7.9 369
12:30 - 13:00 12.2 12.6 11.6 71 0.0 2.2 5 5.4 455
13:00 - 13:30 13.4 13.8 12.5 66 0.0 2.5 186 6.8 475
13:30 - 14:00 13.4 13.8 12.9 67 0.0 3.2 206 7.6 331
14:00 - 14:30 13.8 14.2 13.4 69 0.0 2.9 198 7.9 323
14:30 - 15:00 13.8 14.2 13.3 69 0.0 2.5 198 11.9 251
15:00 - 15:30 13.6 13.8 13.4 70 0.0 2.9 229 7.9 182
15:30 - 16:00 13.1 13.5 12.3 68 0.0 2.9 253 6.5 104
16:00 - 16:30 10.4 12.2 9.3 78 0.0 2.5 281 6.8 18
16:30 - 17:00 10.4 12.1 8.9 75 0.0 4.7 246 19.4 0
17:00 - 17:30 9.0 9.5 8.6 82 0.0 3.2 244 7.2 0
17:30 - 18:00 9.4 9.8 8.8 82 0.0 4.3 244 10.1 0
18:00 - 18:30 9.4 9.6 9.2 82 0.0 4.0 259 7.9 0
18:30 - 19:00 9.0 9.7 7.9 80 0.0 2.2 258 8.3 0
19:00 - 19:30 7.6 8.5 7.0 85 0.0 2.9 225 7.6 0
19:30 - 20:00 7.5 8.1 6.8 84 0.0 2.2 79 7.9 0
20:00 - 20:30 7.7 8.5 6.8 80 0.0 2.5 329 8.6 0
20:30 - 21:00 8.6 9.9 7.1 71 0.0 2.9 334 10.1 0
21:00 - 21:30 8.4 9.5 7.4 70 0.0 2.2 197 6.5 0
21:30 - 22:00 9.4 9.9 8.1 61 0.0 5.0 229 14.8 0
22:00 - 22:30 10.4 11.0 9.0 55 0.0 9.0 275 21.2 0
22:30 - 23:00 8.5 9.8 7.2 66 0.0 2.5 357 8.3 0

Les dades en taronja només han passat un control de qualitat automàtic. Resta pendent la seva validació definitiva.